Time;durP1;ratioP1;P1;durP2;ratioP2;P2;SDS_P1;SDS_P2;PMS_P1;PMS_P2;Temp;Humidity;BMP_temperature;BMP_pressure;BME280_temperature;BME280_humidity;BME280_pressure;Samples;Min_cycle;Max_cycle;Signal;HPM_P1;HPM_P2
2023/07/13 00:02:24;;;;;;;11.10;2.85;;;16.20;99.90;;;;;;5013774;28;20133;-68
2023/07/13 00:04:50;;;;;;;7.28;2.30;;;16.10;99.90;;;;;;5013891;28;20167;-68
2023/07/13 00:07:19;;;;;;;4.80;1.80;;;16.10;99.90;;;;;;5013744;28;20069;-68
2023/07/13 00:09:46;;;;;;;7.28;2.13;;;16.00;99.90;;;;;;5012696;28;20409;-68
2023/07/13 00:12:28;;;;;;;5.93;2.10;;;16.10;99.90;;;;;;5013742;28;20382;-68
2023/07/13 00:14:57;;;;;;;9.30;2.15;;;16.00;99.90;;;;;;5013703;28;20421;-69
2023/07/13 00:17:23;;;;;;;6.10;2.50;;;16.00;99.90;;;;;;5013167;28;20378;-68
2023/07/13 00:19:49;;;;;;;9.65;2.85;;;16.00;99.90;;;;;;5012350;28;20045;-69
2023/07/13 00:22:14;;;;;;;6.63;2.30;;;16.00;99.90;;;;;;5012727;28;20084;-68
2023/07/13 00:24:41;;;;;;;6.47;2.08;;;16.00;99.90;;;;;;5013524;28;20068;-68
2023/07/13 00:27:09;;;;;;;9.77;2.78;;;16.00;99.90;;;;;;5013256;28;20074;-68
2023/07/13 00:29:35;;;;;;;6.22;2.80;;;16.00;99.90;;;;;;5013322;28;20045;-68
2023/07/13 00:32:05;;;;;;;8.75;2.85;;;16.00;99.90;;;;;;5013228;28;20056;-68
2023/07/13 00:34:30;;;;;;;5.95;2.30;;;15.90;99.90;;;;;;5013508;28;20049;-68
2023/07/13 00:36:56;;;;;;;9.95;2.70;;;16.00;99.90;;;;;;5013063;28;20089;-70
2023/07/13 00:39:22;;;;;;;6.00;2.10;;;16.00;99.90;;;;;;5013374;28;20034;-70
2023/07/13 00:41:48;;;;;;;8.93;2.53;;;16.00;99.90;;;;;;5003594;28;20064;-70
2023/07/13 00:44:16;;;;;;;7.65;2.40;;;16.10;99.90;;;;;;4993510;28;20072;-70
2023/07/13 00:46:42;;;;;;;6.60;2.60;;;16.00;99.90;;;;;;4993484;28;20097;-70
2023/07/13 00:49:14;;;;;;;10.02;3.55;;;16.10;99.90;;;;;;4993722;28;20034;-70
2023/07/13 00:51:49;;;;;;;8.63;2.30;;;16.10;99.90;;;;;;4993633;28;20049;-70
2023/07/13 00:54:18;;;;;;;9.52;2.45;;;16.10;99.90;;;;;;4993467;28;20042;-70
2023/07/13 00:56:46;;;;;;;12.55;2.83;;;16.10;99.90;;;;;;4992949;28;20104;-70
2023/07/13 00:59:14;;;;;;;14.88;3.05;;;16.20;99.90;;;;;;4993558;28;20041;-71
2023/07/13 01:01:40;;;;;;;7.10;2.60;;;16.20;99.90;;;;;;5023892;22;20042;-74
2023/07/13 01:04:07;;;;;;;10.00;3.35;;;16.20;99.90;;;;;;4994690;28;20041;-74
2023/07/13 01:06:36;;;;;;;8.63;2.83;;;16.20;99.90;;;;;;5011139;28;20080;-74
2023/07/13 01:09:02;;;;;;;7.68;2.50;;;16.20;99.90;;;;;;5012701;28;20038;-74
2023/07/13 01:11:28;;;;;;;7.85;2.50;;;16.30;99.90;;;;;;5012613;28;20046;-73
2023/07/13 01:13:54;;;;;;;11.02;2.75;;;16.20;99.90;;;;;;5012660;28;20044;-74
2023/07/13 01:16:29;;;;;;;13.25;2.83;;;16.30;99.90;;;;;;5012212;28;20579;-74
2023/07/13 01:18:58;;;;;;;13.43;3.42;;;16.30;99.90;;;;;;5012590;28;20125;-74
2023/07/13 01:21:25;;;;;;;9.55;2.75;;;16.30;99.90;;;;;;5012541;28;20072;-74
2023/07/13 01:23:51;;;;;;;12.57;2.90;;;16.30;99.90;;;;;;5012397;28;20034;-73
2023/07/13 01:26:17;;;;;;;10.68;2.83;;;16.40;99.90;;;;;;5012171;28;20037;-74
2023/07/13 01:28:43;;;;;;;10.57;2.90;;;16.30;99.90;;;;;;5012498;28;20076;-74
2023/07/13 01:31:10;;;;;;;12.13;2.85;;;16.40;99.90;;;;;;5012392;28;20038;-74
2023/07/13 01:33:39;;;;;;;13.02;3.63;;;16.30;99.90;;;;;;5012309;28;20037;-73
2023/07/13 01:36:06;;;;;;;10.85;3.00;;;16.30;99.90;;;;;;5011997;28;20041;-73
2023/07/13 01:38:33;;;;;;;8.38;3.00;;;16.40;99.90;;;;;;5012178;28;20073;-73
2023/07/13 01:40:59;;;;;;;11.68;2.70;;;16.40;99.90;;;;;;5012381;28;20052;-74
2023/07/13 01:43:25;;;;;;;12.57;2.83;;;16.40;99.90;;;;;;4994560;28;20045;-74
2023/07/13 01:45:51;;;;;;;11.73;3.25;;;16.30;99.90;;;;;;5012011;28;20069;-74
2023/07/13 01:48:16;;;;;;;7.28;2.50;;;16.40;99.90;;;;;;5012177;28;20041;-74
2023/07/13 01:50:43;;;;;;;16.08;3.13;;;16.50;99.90;;;;;;4994318;28;20121;-74
2023/07/13 01:53:09;;;;;;;11.07;2.72;;;16.40;99.90;;;;;;5012064;28;20417;-73
2023/07/13 01:55:35;;;;;;;9.98;3.15;;;16.40;99.90;;;;;;5011924;28;20045;-74
2023/07/13 01:58:02;;;;;;;10.50;3.20;;;16.40;99.90;;;;;;5011822;28;20509;-73
2023/07/13 02:00:27;;;;;;;13.07;3.25;;;16.50;99.90;;;;;;5012093;28;20088;-74
2023/07/13 02:02:53;;;;;;;12.18;3.13;;;16.40;99.90;;;;;;5011718;28;20042;-74
2023/07/13 02:05:19;;;;;;;12.63;2.67;;;16.50;99.90;;;;;;5011892;28;20034;-74
2023/07/13 02:07:45;;;;;;;8.85;3.03;;;16.40;99.90;;;;;;5011703;28;20041;-74
2023/07/13 02:10:11;;;;;;;8.63;2.47;;;16.60;99.90;;;;;;4994223;28;20041;-74
2023/07/13 02:12:37;;;;;;;11.68;3.38;;;16.50;99.90;;;;;;5011880;28;20444;-73
2023/07/13 02:15:05;;;;;;;10.32;3.25;;;16.60;99.90;;;;;;5012021;28;20073;-74
2023/07/13 02:17:31;;;;;;;12.32;3.08;;;16.50;99.90;;;;;;5011629;28;20118;-74
2023/07/13 02:19:57;;;;;;;12.77;2.90;;;16.70;99.90;;;;;;5011823;28;20038;-74
2023/07/13 02:22:23;;;;;;;11.65;3.47;;;16.60;99.90;;;;;;4994323;28;20405;-74
2023/07/13 02:24:49;;;;;;;15.18;3.13;;;16.60;99.90;;;;;;4994208;28;20042;-74
2023/07/13 02:27:16;;;;;;;10.73;3.30;;;16.50;99.90;;;;;;4993757;28;20596;-74
2023/07/13 02:29:41;;;;;;;7.88;2.63;;;16.60;99.90;;;;;;5011781;28;20121;-74
2023/07/13 02:32:08;;;;;;;11.30;2.75;;;16.50;99.90;;;;;;5011683;28;20176;-73
2023/07/13 02:34:34;;;;;;;11.80;2.50;;;16.60;99.90;;;;;;4993974;28;20046;-74
2023/07/13 02:37:00;;;;;;;10.88;4.28;;;16.70;99.90;;;;;;4994161;28;20041;-74
2023/07/13 02:39:26;;;;;;;12.32;3.00;;;16.50;99.90;;;;;;5011665;28;20046;-74
2023/07/13 02:41:51;;;;;;;12.02;3.53;;;16.50;99.90;;;;;;4977669;28;20088;-74
2023/07/13 02:44:17;;;;;;;11.93;2.75;;;16.60;99.90;;;;;;5011727;28;20080;-74
2023/07/13 02:46:43;;;;;;;15.15;3.42;;;16.60;99.90;;;;;;5015022;28;20176;-74
2023/07/13 02:49:09;;;;;;;10.30;3.13;;;16.50;99.90;;;;;;5015362;28;20033;-74
2023/07/13 02:51:34;;;;;;;13.00;3.08;;;16.60;99.90;;;;;;4997632;28;20042;-74
2023/07/13 02:54:02;;;;;;;7.80;3.28;;;16.60;99.90;;;;;;4998033;28;20053;-73
2023/07/13 02:56:30;;;;;;;10.85;2.88;;;16.50;99.90;;;;;;5014839;28;20077;-74
2023/07/13 02:58:56;;;;;;;14.77;4.07;;;16.60;99.90;;;;;;5015230;28;20543;-74
2023/07/13 03:01:22;;;;;;;8.18;2.40;;;16.50;99.90;;;;;;5015049;28;20045;-74
2023/07/13 03:03:49;;;;;;;8.25;2.70;;;16.50;99.90;;;;;;5015010;28;20070;-74
2023/07/13 03:06:16;;;;;;;11.77;2.83;;;16.40;99.90;;;;;;5014985;28;20091;-74
2023/07/13 03:08:42;;;;;;;9.43;2.35;;;16.40;99.90;;;;;;5015010;28;20500;-74
2023/07/13 03:11:12;;;;;;;9.85;2.40;;;16.20;99.90;;;;;;5014991;28;20038;-74
2023/07/13 03:13:38;;;;;;;8.38;2.65;;;16.20;99.90;;;;;;5015008;28;20046;-74
2023/07/13 03:16:05;;;;;;;8.98;2.90;;;16.20;99.90;;;;;;4997024;28;20214;-73
2023/07/13 03:18:31;;;;;;;8.70;3.50;;;16.10;99.90;;;;;;4997068;28;20046;-74
2023/07/13 03:20:57;;;;;;;10.48;3.05;;;16.00;99.90;;;;;;4997120;28;20413;-74
2023/07/13 03:23:22;;;;;;;9.38;2.80;;;16.00;99.90;;;;;;5014946;28;20034;-74
2023/07/13 03:25:48;;;;;;;7.47;2.50;;;16.00;99.90;;;;;;5014559;28;20412;-73
2023/07/13 03:28:14;;;;;;;10.15;3.55;;;16.00;99.90;;;;;;5014765;28;20125;-74
2023/07/13 03:30:43;;;;;;;9.23;2.47;;;16.00;99.90;;;;;;5014463;28;20061;-74
2023/07/13 03:33:09;;;;;;;8.13;3.28;;;16.00;99.90;;;;;;4996889;28;20042;-74
2023/07/13 03:35:35;;;;;;;8.13;2.97;;;15.90;99.90;;;;;;4996866;28;20030;-73
2023/07/13 03:38:01;;;;;;;11.38;4.03;;;15.90;99.90;;;;;;5014433;28;20493;-74
2023/07/13 03:40:28;;;;;;;11.30;3.22;;;15.80;99.90;;;;;;4997053;28;20407;-74
2023/07/13 03:42:54;;;;;;;12.35;3.45;;;15.90;99.90;;;;;;5014384;28;20544;-74
2023/07/13 03:45:19;;;;;;;8.23;3.20;;;15.80;99.90;;;;;;5014280;28;20045;-74
2023/07/13 03:47:45;;;;;;;12.82;2.95;;;15.80;99.90;;;;;;4996527;28;20042;-74
2023/07/13 03:50:11;;;;;;;11.00;3.58;;;15.90;99.90;;;;;;4996726;28;20038;-74
2023/07/13 03:52:39;;;;;;;10.45;3.15;;;15.70;99.90;;;;;;5014116;28;20041;-73
2023/07/13 03:55:06;;;;;;;10.15;2.75;;;15.80;99.90;;;;;;5014179;28;20042;-73
2023/07/13 03:57:32;;;;;;;13.98;3.72;;;15.80;99.90;;;;;;5012428;28;20045;-73
2023/07/13 03:59:57;;;;;;;12.82;3.40;;;15.80;99.90;;;;;;5014095;28;20042;-74
2023/07/13 04:02:23;;;;;;;13.70;3.40;;;15.90;99.90;;;;;;4996222;28;20493;-73
2023/07/13 04:04:49;;;;;;;15.13;3.47;;;15.80;99.90;;;;;;5014032;28;20125;-74
2023/07/13 04:07:14;;;;;;;9.70;3.08;;;15.90;99.90;;;;;;4996044;28;20050;-74
2023/07/13 04:09:40;;;;;;;9.15;3.50;;;15.80;99.90;;;;;;5013957;28;20041;-73
2023/07/13 04:12:06;;;;;;;8.63;3.88;;;15.90;99.90;;;;;;5013784;28;20493;-73
2023/07/13 04:14:32;;;;;;;9.30;3.17;;;15.80;99.90;;;;;;5013825;28;20551;-74
2023/07/13 04:16:58;;;;;;;10.50;4.10;;;15.90;99.90;;;;;;4995768;28;20125;-74
2023/07/13 04:19:24;;;;;;;9.40;2.97;;;16.00;99.90;;;;;;5013856;28;20509;-74
2023/07/13 04:21:49;;;;;;;12.82;3.83;;;15.90;99.90;;;;;;4996015;28;20124;-74
2023/07/13 04:24:15;;;;;;;9.40;3.50;;;16.00;99.90;;;;;;5013532;28;20044;-74
2023/07/13 04:26:41;;;;;;;14.82;3.67;;;16.00;99.90;;;;;;5013276;28;20037;-74
2023/07/13 04:29:07;;;;;;;15.48;3.90;;;15.90;99.90;;;;;;4996026;28;20120;-74
2023/07/13 04:31:33;;;;;;;13.65;4.82;;;16.00;99.90;;;;;;5013326;28;20470;-74
2023/07/13 04:33:59;;;;;;;11.30;3.17;;;16.00;99.90;;;;;;5013495;28;20047;-74
2023/07/13 04:36:29;;;;;;;14.20;3.10;;;16.10;99.90;;;;;;5013078;28;20038;-74
2023/07/13 04:38:54;;;;;;;11.55;3.85;;;16.10;99.90;;;;;;4995686;28;20071;-74
2023/07/13 04:41:21;;;;;;;15.45;3.55;;;16.10;99.90;;;;;;4995745;28;20030;-73
2023/07/13 04:43:47;;;;;;;10.88;3.72;;;16.10;99.90;;;;;;5013197;28;20042;-73
2023/07/13 04:46:17;;;;;;;16.85;3.75;;;16.00;99.90;;;;;;5013102;28;20157;-74
2023/07/13 04:48:43;;;;;;;13.13;3.03;;;16.20;99.90;;;;;;5013226;28;20053;-73
2023/07/13 04:51:08;;;;;;;11.63;4.15;;;16.30;99.90;;;;;;5013178;28;20041;-73
2023/07/13 04:53:34;;;;;;;15.35;4.18;;;16.30;99.90;;;;;;5013166;28;20034;-73
2023/07/13 04:56:00;;;;;;;9.23;3.95;;;16.50;99.90;;;;;;4995340;28;20041;-73
2023/07/13 04:58:27;;;;;;;13.57;3.92;;;16.70;99.90;;;;;;5012888;28;20049;-74
2023/07/13 05:00:58;;;;;;;15.80;4.00;;;16.70;99.90;;;;;;5012890;28;20451;-74
2023/07/13 05:03:24;;;;;;;11.65;3.55;;;16.80;99.90;;;;;;4995258;28;20073;-74
2023/07/13 05:05:58;;;;;;;14.57;4.28;;;16.90;99.90;;;;;;4978776;28;20401;-74
2023/07/13 05:08:23;;;;;;;10.85;3.42;;;16.80;99.90;;;;;;5012370;28;20046;-74
2023/07/13 05:10:50;;;;;;;10.25;3.33;;;17.00;99.90;;;;;;4995094;28;20042;-74
2023/07/13 05:13:16;;;;;;;12.13;3.58;;;17.00;99.90;;;;;;4995123;28;20092;-74
2023/07/13 05:15:41;;;;;;;14.18;3.63;;;17.10;99.90;;;;;;4994870;28;20074;-74
2023/07/13 05:18:07;;;;;;;13.15;3.75;;;17.00;99.90;;;;;;5012590;28;20090;-74
2023/07/13 05:20:33;;;;;;;14.35;3.85;;;16.90;99.90;;;;;;5012685;28;20030;-74
2023/07/13 05:22:58;;;;;;;7.53;3.15;;;17.00;99.90;;;;;;5012443;28;20129;-74
2023/07/13 05:25:24;;;;;;;14.10;4.53;;;17.20;99.90;;;;;;4994830;28;20049;-74
2023/07/13 05:27:50;;;;;;;11.30;3.53;;;17.50;99.90;;;;;;4994607;28;20525;-74
2023/07/13 05:30:16;;;;;;;9.18;3.33;;;17.70;99.90;;;;;;5012384;28;20041;-73
2023/07/13 05:32:42;;;;;;;14.43;3.75;;;17.90;99.90;;;;;;4994676;28;20081;-73
2023/07/13 05:35:08;;;;;;;13.30;3.30;;;18.20;99.90;;;;;;4994754;28;20042;-74
2023/07/13 05:37:34;;;;;;;8.93;3.50;;;18.30;99.90;;;;;;5011990;28;20041;-74
2023/07/13 05:40:00;;;;;;;7.30;3.03;;;18.50;99.90;;;;;;5012165;28;20034;-73
2023/07/13 05:42:26;;;;;;;7.85;2.80;;;18.80;99.90;;;;;;4994739;28;20095;-73
2023/07/13 05:44:51;;;;;;;8.80;3.30;;;18.80;99.90;;;;;;5012258;28;20073;-74
2023/07/13 05:47:17;;;;;;;6.93;2.58;;;18.90;99.90;;;;;;5011946;28;20474;-74
2023/07/13 05:49:43;;;;;;;11.07;3.15;;;19.10;99.90;;;;;;4994573;28;20104;-73
2023/07/13 05:52:08;;;;;;;13.57;3.20;;;19.10;99.90;;;;;;5012100;28;20034;-73
2023/07/13 05:54:34;;;;;;;28.90;6.85;;;19.30;99.90;;;;;;5012034;28;20041;-73
2023/07/13 05:57:00;;;;;;;36.35;7.63;;;19.50;99.90;;;;;;4993942;28;20045;-74
2023/07/13 05:59:26;;;;;;;22.45;4.00;;;19.70;99.90;;;;;;5012172;28;20092;-73
2023/07/13 06:01:52;;;;;;;9.70;2.72;;;19.80;99.90;;;;;;5011923;28;20030;-73
2023/07/13 06:04:19;;;;;;;8.07;2.80;;;20.00;99.90;;;;;;4994386;28;20080;-74
2023/07/13 06:06:45;;;;;;;16.42;3.28;;;20.20;99.90;;;;;;5011559;28;20050;-74
2023/07/13 06:09:11;;;;;;;8.88;2.70;;;20.50;99.90;;;;;;4994448;28;20512;-73
2023/07/13 06:11:36;;;;;;;7.55;2.30;;;20.60;99.90;;;;;;4994473;28;20049;-74
2023/07/13 06:14:03;;;;;;;43.05;7.85;;;20.40;99.90;;;;;;5011770;28;20092;-73
2023/07/13 06:16:29;;;;;;;32.70;6.90;;;20.70;99.90;;;;;;5011627;28;20121;-74
2023/07/13 06:18:55;;;;;;;22.10;3.78;;;20.80;99.90;;;;;;4994140;28;20121;-74
2023/07/13 06:21:22;;;;;;;6.45;2.47;;;21.00;99.90;;;;;;5014936;28;20077;-74
2023/07/13 06:23:50;;;;;;;7.93;2.60;;;21.20;99.90;;;;;;4998024;28;20184;-73
2023/07/13 06:26:17;;;;;;;4.88;1.92;;;21.20;99.90;;;;;;5015485;28;20514;-73
2023/07/13 06:28:43;;;;;;;39.75;5.85;;;21.30;99.90;;;;;;5016012;28;20125;-73
2023/07/13 06:31:11;;;;;;;9.80;2.67;;;21.40;99.90;;;;;;5015812;28;20041;-73
2023/07/13 06:33:37;;;;;;;32.10;5.32;;;21.30;99.90;;;;;;5015677;28;20038;-73
2023/07/13 06:36:05;;;;;;;31.13;3.88;;;21.40;99.90;;;;;;5015319;28;20037;-73
2023/07/13 06:38:31;;;;;;;12.98;2.47;;;21.50;99.90;;;;;;5015555;28;20090;-73
2023/07/13 06:40:57;;;;;;;11.70;2.05;;;21.50;99.90;;;;;;5015675;28;20045;-73
2023/07/13 06:43:24;;;;;;;16.67;4.50;;;21.50;99.90;;;;;;4998175;28;20034;-73
2023/07/13 06:45:51;;;;;;;13.45;2.15;;;21.60;99.90;;;;;;4979593;28;20030;-73
2023/07/13 06:48:19;;;;;;;13.38;2.65;;;21.80;99.90;;;;;;4997394;28;20038;-73
2023/07/13 06:50:45;;;;;;;9.05;2.42;;;21.90;99.90;;;;;;5014683;28;20405;-73
2023/07/13 06:53:12;;;;;;;9.52;2.45;;;21.90;99.90;;;;;;4997645;28;20117;-73
2023/07/13 06:55:38;;;;;;;20.92;3.13;;;22.00;99.90;;;;;;4997554;28;20041;-74
2023/07/13 06:58:04;;;;;;;7.75;1.85;;;22.20;99.90;;;;;;5015249;28;20042;-73
2023/07/13 07:00:30;;;;;;;12.77;2.60;;;22.40;99.90;;;;;;5015365;28;20038;-73
2023/07/13 07:02:56;;;;;;;12.60;2.63;;;22.50;99.90;;;;;;5067469;22;20064;-71
2023/07/13 07:05:22;;;;;;;6.72;1.70;;;22.50;99.90;;;;;;5054393;28;20063;-71
2023/07/13 07:07:50;;;;;;;8.07;1.83;;;23.00;99.90;;;;;;5054278;28;20041;-71
2023/07/13 07:10:16;;;;;;;3.40;1.88;;;22.80;99.90;;;;;;5054903;28;20110;-71
2023/07/13 07:12:42;;;;;;;7.07;1.92;;;22.70;99.90;;;;;;5022205;28;20128;-71
2023/07/13 07:15:07;;;;;;;4.18;1.60;;;22.60;99.90;;;;;;5017072;28;20041;-71
2023/07/13 07:17:33;;;;;;;5.47;2.05;;;22.50;99.90;;;;;;5016631;28;20521;-71
2023/07/13 07:19:59;;;;;;;6.88;2.30;;;22.40;99.90;;;;;;5034397;28;20036;-71
2023/07/13 07:22:27;;;;;;;8.85;1.85;;;22.60;99.90;;;;;;5032223;28;20191;-71
2023/07/13 07:24:54;;;;;;;8.27;1.70;;;22.60;99.90;;;;;;5025964;28;20504;-71
2023/07/13 07:27:20;;;;;;;8.68;2.60;;;22.10;99.90;;;;;;5033673;28;20033;-71
2023/07/13 07:29:46;;;;;;;75.47;12.68;;;21.80;99.90;;;;;;5016424;28;20041;-71
2023/07/13 07:32:12;;;;;;;21.50;4.88;;;21.50;99.90;;;;;;5033631;28;20480;-71
2023/07/13 07:34:37;;;;;;;6.82;2.00;;;21.20;99.90;;;;;;5030977;28;20416;-71
2023/07/13 07:37:04;;;;;;;6.35;2.72;;;20.90;99.90;;;;;;5015973;28;20107;-71
2023/07/13 07:39:29;;;;;;;9.70;2.45;;;20.60;99.90;;;;;;5033731;28;20053;-71
2023/07/13 07:41:55;;;;;;;9.40;2.20;;;20.30;99.90;;;;;;5033708;28;20037;-71
2023/07/13 07:44:21;;;;;;;5.07;2.10;;;20.00;99.90;;;;;;5025507;28;20030;-71
2023/07/13 07:46:47;;;;;;;6.05;2.13;;;19.60;99.90;;;;;;5013974;28;20469;-70
2023/07/13 07:49:12;;;;;;;4.18;2.17;;;19.80;99.90;;;;;;5011299;28;20047;-71
2023/07/13 07:51:38;;;;;;;7.00;2.38;;;20.00;99.90;;;;;;5033941;28;20544;-70
2023/07/13 07:54:05;;;;;;;9.57;2.08;;;20.40;99.90;;;;;;5034192;28;20619;-70
2023/07/13 07:56:31;;;;;;;5.60;2.00;;;21.00;99.90;;;;;;5015892;28;20120;-71
2023/07/13 07:58:57;;;;;;;6.68;2.03;;;20.90;99.90;;;;;;5016339;28;20128;-71
2023/07/13 08:01:22;;;;;;;6.57;2.33;;;21.00;99.90;;;;;;5033487;28;20134;-70
2023/07/13 08:03:48;;;;;;;4.68;1.92;;;21.10;99.90;;;;;;5033226;28;20113;-70
2023/07/13 08:06:14;;;;;;;9.73;2.88;;;21.00;99.90;;;;;;5032967;28;20411;-70
2023/07/13 08:08:40;;;;;;;6.25;2.00;;;20.80;99.90;;;;;;5033676;28;20038;-70
2023/07/13 08:11:08;;;;;;;8.43;1.85;;;20.70;99.90;;;;;;5033320;28;20037;-70
2023/07/13 08:13:34;;;;;;;7.00;2.08;;;20.30;99.90;;;;;;5033510;28;20049;-70
2023/07/13 08:16:00;;;;;;;7.78;1.98;;;20.10;99.90;;;;;;5032990;28;20512;-70
2023/07/13 08:18:27;;;;;;;7.32;2.00;;;20.00;99.90;;;;;;5015511;28;20404;-70
2023/07/13 08:20:56;;;;;;;7.22;1.75;;;19.90;99.90;;;;;;5033535;28;20424;-70
2023/07/13 08:23:22;;;;;;;5.72;1.50;;;20.20;99.90;;;;;;5033130;28;20536;-70
2023/07/13 08:25:55;;;;;;;3.50;1.48;;;20.50;99.90;;;;;;5032833;28;20041;-70
2023/07/13 08:28:21;;;;;;;2.22;1.45;;;20.90;99.90;;;;;;5033307;28;20535;-71
2023/07/13 08:30:48;;;;;;;6.93;2.00;;;21.50;99.90;;;;;;5033146;28;20061;-70
2023/07/13 08:33:17;;;;;;;4.75;1.63;;;21.70;99.90;;;;;;5015490;28;20496;-71
2023/07/13 08:35:46;;;;;;;4.63;1.80;;;21.50;99.90;;;;;;5032985;28;20041;-70
2023/07/13 08:38:12;;;;;;;5.85;1.52;;;21.30;99.90;;;;;;5015296;28;20120;-71
2023/07/13 08:40:39;;;;;;;6.75;1.70;;;21.20;99.90;;;;;;5032843;28;20128;-71
2023/07/13 08:43:12;;;;;;;5.80;1.50;;;21.00;99.90;;;;;;5032117;28;20040;-71
2023/07/13 08:45:41;;;;;;;3.88;1.42;;;20.80;99.90;;;;;;5032232;28;20037;-71
2023/07/13 08:48:27;;;;;;;5.82;1.60;;;20.80;99.90;;;;;;5032492;28;20041;-71
2023/07/13 08:51:09;;;;;;;3.88;1.42;;;20.90;99.90;;;;;;5012998;28;20401;-71
2023/07/13 08:53:42;;;;;;;5.57;1.60;;;21.30;99.90;;;;;;5012856;28;20100;-71
2023/07/13 08:56:16;;;;;;;3.85;1.20;;;21.20;99.90;;;;;;5012582;28;20575;-71
2023/07/13 08:58:43;;;;;;;3.42;1.50;;;21.10;99.90;;;;;;5012658;28;20501;-71
2023/07/13 09:01:46;;;;;;;4.47;1.30;;;20.90;99.90;;;;;;4995037;28;20041;-70
2023/07/13 09:04:16;;;;;;;1.67;1.00;;;20.70;99.90;;;;;;5012659;28;20497;-71
2023/07/13 09:06:54;;;;;;;6.07;1.30;;;20.60;99.90;;;;;;5015030;28;20033;-71
2023/07/13 09:09:46;;;;;;;2.45;1.40;;;20.50;99.90;;;;;;5030961;28;20102;-71
2023/07/13 09:12:16;;;;;;;4.78;1.50;;;20.30;99.90;;;;;;5012619;28;20034;-71
2023/07/13 09:14:51;;;;;;;5.03;1.73;;;20.20;99.90;;;;;;5012532;28;20038;-71
2023/07/13 09:17:39;;;;;;;5.25;1.98;;;19.80;99.90;;;;;;5012126;28;20475;-71
2023/07/13 09:20:23;;;;;;;4.72;1.50;;;19.70;99.90;;;;;;5012562;28;20041;-71
2023/07/13 09:22:50;;;;;;;7.35;1.83;;;20.40;99.90;;;;;;4994722;28;20057;-70
2023/07/13 09:25:30;;;;;;;4.32;1.70;;;20.60;99.90;;;;;;5013671;28;20560;-71
2023/07/13 09:28:01;;;;;;;7.68;2.00;;;20.50;99.90;;;;;;5031919;28;20049;-71
2023/07/13 09:30:37;;;;;;;5.72;1.80;;;20.40;99.90;;;;;;5032094;28;20049;-70
2023/07/13 09:33:04;;;;;;;2.85;1.40;;;20.40;99.90;;;;;;5014459;28;20507;-71
2023/07/13 09:35:30;;;;;;;6.03;1.90;;;20.30;99.90;;;;;;5031712;28;20045;-71
2023/07/13 09:38:11;;;;;;;3.28;1.52;;;20.70;99.90;;;;;;5031802;28;20069;-71
2023/07/13 09:41:00;;;;;;;5.40;1.88;;;21.10;99.90;;;;;;5014408;28;20045;-71
2023/07/13 09:43:26;;;;;;;3.90;1.90;;;21.50;99.90;;;;;;5014108;28;20045;-71
2023/07/13 09:45:52;;;;;;;4.43;2.05;;;21.70;99.90;;;;;;5031925;28;20034;-71
2023/07/13 09:48:18;;;;;;;4.28;1.80;;;21.90;99.90;;;;;;5014390;28;20115;-71
2023/07/13 09:50:44;;;;;;;4.45;2.03;;;22.20;99.90;;;;;;5031946;28;20053;-71
2023/07/13 09:53:17;;;;;;;2.80;1.60;;;21.90;99.90;;;;;;5031789;28;20041;-72
2023/07/13 09:55:48;;;;;;;6.28;2.20;;;21.60;99.90;;;;;;5031404;28;20052;-71
2023/07/13 09:58:24;;;;;;;4.18;2.28;;;21.20;99.90;;;;;;5013914;28;20045;-71
2023/07/13 10:00:59;;;;;;;6.07;2.20;;;21.00;99.90;;;;;;5031058;28;20069;-71
2023/07/13 10:03:37;;;;;;;3.55;2.33;;;20.70;99.90;;;;;;5011715;28;20478;-71
2023/07/13 10:06:14;;;;;;;4.43;1.95;;;20.40;99.90;;;;;;5014631;28;20037;-71
2023/07/13 10:08:40;;;;;;;4.63;1.90;;;20.20;99.90;;;;;;5031081;28;20033;-71
2023/07/13 10:11:22;;;;;;;4.25;1.60;;;20.10;99.90;;;;;;5028687;28;20036;-71
2023/07/13 10:13:55;;;;;;;6.25;2.40;;;20.00;99.90;;;;;;5028833;28;20373;-71
2023/07/13 10:16:22;;;;;;;7.25;2.45;;;20.00;99.90;;;;;;5013720;28;20562;-70
2023/07/13 10:18:50;;;;;;;4.47;2.00;;;19.90;99.90;;;;;;5031520;28;20038;-71
2023/07/13 10:21:27;;;;;;;5.68;1.92;;;19.80;99.90;;;;;;5031341;28;20038;-71
2023/07/13 10:24:17;;;;;;;6.65;2.45;;;19.70;99.90;;;;;;5031657;28;20041;-71
2023/07/13 10:27:11;;;;;;;4.47;2.80;;;19.70;99.90;;;;;;5031079;28;20045;-71
2023/07/13 10:30:02;;;;;;;5.07;2.30;;;19.70;99.90;;;;;;5027222;28;20049;-71
2023/07/13 10:32:27;;;;;;;6.53;2.30;;;19.90;99.90;;;;;;5025511;28;20052;-71
2023/07/13 10:34:55;;;;;;;3.65;2.00;;;20.20;99.90;;;;;;5031513;28;20033;-71
2023/07/13 10:37:25;;;;;;;4.93;2.42;;;20.60;99.90;;;;;;5030971;28;20042;-71
2023/07/13 10:39:55;;;;;;;4.88;2.22;;;20.90;99.90;;;;;;5030690;28;20057;-72
2023/07/13 10:42:43;;;;;;;5.15;2.38;;;21.10;99.90;;;;;;5013132;28;20501;-71
2023/07/13 10:45:34;;;;;;;5.20;2.42;;;21.20;99.90;;;;;;4997320;28;20049;-71
2023/07/13 10:48:01;;;;;;;6.60;2.50;;;21.10;99.90;;;;;;5013529;28;20048;-71
2023/07/13 10:50:30;;;;;;;5.30;2.75;;;21.00;99.90;;;;;;5031067;28;20037;-71
2023/07/13 10:53:18;;;;;;;6.85;2.63;;;20.90;99.90;;;;;;5013417;28;20050;-71
2023/07/13 10:55:53;;;;;;;3.58;2.03;;;21.20;99.90;;;;;;5030960;28;20051;-71
2023/07/13 10:58:28;;;;;;;8.20;2.28;;;21.40;99.90;;;;;;5031150;28;20111;-71
2023/07/13 11:01:03;;;;;;;4.05;2.33;;;21.30;99.90;;;;;;5013586;28;20397;-72
2023/07/13 11:03:32;;;;;;;3.75;1.88;;;21.10;99.90;;;;;;5031133;28;20034;-72
2023/07/13 11:06:15;;;;;;;5.28;2.42;;;21.00;99.90;;;;;;5031622;28;20041;-71
2023/07/13 11:08:49;;;;;;;6.25;2.35;;;21.00;99.90;;;;;;5034410;28;20500;-72
2023/07/13 11:11:24;;;;;;;3.78;1.60;;;21.10;99.90;;;;;;5032442;28;20464;-72
2023/07/13 11:13:50;;;;;;;5.35;1.85;;;21.00;99.90;;;;;;5031843;28;20045;-72
2023/07/13 11:16:18;;;;;;;5.93;1.92;;;21.00;99.90;;;;;;5033908;28;20116;-72
2023/07/13 11:19:05;;;;;;;3.75;2.15;;;21.00;99.90;;;;;;5033949;28;20525;-71
2023/07/13 11:21:31;;;;;;;5.10;1.92;;;20.80;99.90;;;;;;5032987;28;20051;-71
2023/07/13 11:24:17;;;;;;;4.53;2.08;;;20.80;99.90;;;;;;5034655;28;20037;-71
2023/07/13 11:26:45;;;;;;;7.82;2.45;;;21.00;99.90;;;;;;5034205;28;20408;-71
2023/07/13 11:29:17;;;;;;;3.22;1.80;;;21.10;99.90;;;;;;5034237;28;20496;-71
2023/07/13 11:31:54;;;;;;;4.28;2.45;;;21.30;99.90;;;;;;5033853;28;20041;-71
2023/07/13 11:34:27;;;;;;;4.53;1.77;;;21.50;99.90;;;;;;5034550;28;20107;-71
2023/07/13 11:36:53;;;;;;;;;;;21.60;99.90;;;;;;5016832;28;20422;-71
2023/07/13 11:39:38;;;;;;;3.95;1.77;;;21.70;99.90;;;;;;5016414;28;19917;-71
2023/07/13 11:42:08;;;;;;;8.10;1.30;;;21.80;99.90;;;;;;5034171;28;20528;-71
2023/07/13 11:44:35;;;;;;;4.47;0.93;;;21.90;99.90;;;;;;5034030;28;20048;-71
2023/07/13 11:47:17;;;;;;;6.18;1.25;;;22.10;99.90;;;;;;5016240;28;20041;-71
2023/07/13 11:49:49;;;;;;;1.98;1.08;;;22.20;99.90;;;;;;5034153;28;20052;-72
2023/07/13 11:52:21;;;;;;;1.33;0.63;;;22.40;99.90;;;;;;5034007;28;20095;-71
2023/07/13 11:55:14;;;;;;;4.43;1.25;;;22.50;99.90;;;;;;5000286;28;20128;-71
2023/07/13 11:57:50;;;;;;;5.20;1.10;;;22.30;97.60;;;;;;5033707;28;20423;-71
2023/07/13 12:00:24;;;;;;;2.20;1.02;;;22.00;98.70;;;;;;5033964;28;20045;-71
2023/07/13 12:02:53;;;;;;;4.43;0.90;;;21.80;99.10;;;;;;5033676;28;20041;-72
2023/07/13 12:05:22;;;;;;;7.50;1.33;;;21.90;98.10;;;;;;5033547;28;20084;-69
2023/07/13 12:07:49;;;;;;;5.25;1.10;;;21.90;98.20;;;;;;5033166;28;20063;-69
2023/07/13 12:10:30;;;;;;;4.80;1.50;;;21.80;99.10;;;;;;5015745;28;20041;-69
2023/07/13 12:13:04;;;;;;;2.65;1.08;;;21.70;99.40;;;;;;5033611;28;20041;-69
2023/07/13 12:15:46;;;;;;;4.25;1.42;;;21.50;99.40;;;;;;5033486;28;20087;-69
2023/07/13 12:18:21;;;;;;;3.30;1.25;;;21.40;98.90;;;;;;5032571;28;20086;-69
2023/07/13 12:20:48;;;;;;;2.38;1.00;;;21.60;98.60;;;;;;5033644;28;20048;-69
2023/07/13 12:23:27;;;;;;;4.30;1.23;;;21.70;98.70;;;;;;5033470;28;20068;-69
2023/07/13 12:25:53;;;;;;;3.83;1.85;;;21.90;97.80;;;;;;5015492;28;20076;-69
2023/07/13 12:28:31;;;;;;;3.53;0.98;;;22.00;97.60;;;;;;5015835;28;20121;-69
2023/07/13 12:31:02;;;;;;;4.13;1.48;;;22.10;96.90;;;;;;5015839;28;20041;-69
2023/07/13 12:33:30;;;;;;;3.50;1.10;;;21.90;96.50;;;;;;5033214;28;20043;-69
2023/07/13 12:35:56;;;;;;;6.65;1.10;;;21.90;96.70;;;;;;5015031;28;20048;-70
2023/07/13 12:38:25;;;;;;;2.97;1.40;;;21.90;96.50;;;;;;5015290;28;20056;-69
2023/07/13 12:40:52;;;;;;;4.88;1.58;;;21.80;96.30;;;;;;5032942;28;20041;-69
2023/07/13 12:43:21;;;;;;;5.38;1.60;;;21.70;96.80;;;;;;5015315;28;20412;-70
2023/07/13 12:46:23;;;;;;;4.95;1.20;;;21.70;96.70;;;;;;5032906;28;20037;-70
2023/07/13 12:48:52;;;;;;;6.15;1.20;;;21.80;96.80;;;;;;5012978;28;20092;-70
2023/07/13 12:51:22;;;;;;;6.75;1.42;;;21.90;96.70;;;;;;5032237;28;20049;-69
2023/07/13 12:53:50;;;;;;;4.00;1.15;;;22.10;96.30;;;;;;5032936;28;20072;-69